sensor_id;sensor_type;location;lat;lon;timestamp;P1;durP1;ratioP1;P2;durP2;ratioP2
70800;SDS011;59616;52.170;5.386;2023-06-24T00:01:04;13.32;;;6.47;;
70800;SDS011;59616;52.170;5.386;2023-06-24T00:03:32;14.00;;;6.32;;
70800;SDS011;59616;52.170;5.386;2023-06-24T00:06:03;13.82;;;6.05;;
70800;SDS011;59616;52.170;5.386;2023-06-24T00:08:31;14.00;;;6.22;;
70800;SDS011;59616;52.170;5.386;2023-06-24T00:11:01;15.18;;;6.80;;
70800;SDS011;59616;52.170;5.386;2023-06-24T00:13:28;12.73;;;6.40;;
70800;SDS011;59616;52.170;5.386;2023-06-24T00:15:56;13.90;;;6.75;;
70800;SDS011;59616;52.170;5.386;2023-06-24T00:18:23;14.25;;;6.40;;
70800;SDS011;59616;52.170;5.386;2023-06-24T00:20:50;14.40;;;6.63;;
70800;SDS011;59616;52.170;5.386;2023-06-24T00:23:19;14.10;;;6.63;;
70800;SDS011;59616;52.170;5.386;2023-06-24T00:25:52;15.13;;;7.30;;
70800;SDS011;59616;52.170;5.386;2023-06-24T00:28:20;15.43;;;7.03;;
70800;SDS011;59616;52.170;5.386;2023-06-24T00:30:47;13.57;;;6.20;;
70800;SDS011;59616;52.170;5.386;2023-06-24T00:33:15;13.65;;;7.22;;
70800;SDS011;59616;52.170;5.386;2023-06-24T00:35:49;15.25;;;6.85;;
70800;SDS011;59616;52.170;5.386;2023-06-24T00:38:16;15.63;;;6.10;;
70800;SDS011;59616;52.170;5.386;2023-06-24T00:40:44;11.75;;;5.82;;
70800;SDS011;59616;52.170;5.386;2023-06-24T00:43:13;13.88;;;5.85;;
70800;SDS011;59616;52.170;5.386;2023-06-24T00:45:40;11.25;;;5.22;;
70800;SDS011;59616;52.170;5.386;2023-06-24T00:48:08;12.63;;;5.57;;
70800;SDS011;59616;52.170;5.386;2023-06-24T00:50:35;12.27;;;5.53;;
70800;SDS011;59616;52.170;5.386;2023-06-24T00:53:03;12.20;;;5.25;;
70800;SDS011;59616;52.170;5.386;2023-06-24T00:55:30;13.43;;;5.57;;
70800;SDS011;59616;52.170;5.386;2023-06-24T00:57:58;12.43;;;5.43;;
70800;SDS011;59616;52.170;5.386;2023-06-24T01:00:28;12.20;;;5.75;;
70800;SDS011;59616;52.170;5.386;2023-06-24T01:02:55;13.57;;;5.85;;
70800;SDS011;59616;52.170;5.386;2023-06-24T01:05:25;11.95;;;5.90;;
70800;SDS011;59616;52.170;5.386;2023-06-24T01:07:53;11.90;;;5.15;;
70800;SDS011;59616;52.170;5.386;2023-06-24T01:10:23;12.60;;;5.60;;
70800;SDS011;59616;52.170;5.386;2023-06-24T01:12:52;12.80;;;5.60;;
70800;SDS011;59616;52.170;5.386;2023-06-24T01:15:20;11.93;;;5.65;;
70800;SDS011;59616;52.170;5.386;2023-06-24T01:20:29;13.48;;;5.40;;
70800;SDS011;59616;52.170;5.386;2023-06-24T01:34:10;11.75;;;5.43;;
70800;SDS011;59616;52.170;5.386;2023-06-24T01:36:40;14.10;;;5.43;;
70800;SDS011;59616;52.170;5.386;2023-06-24T01:39:08;13.30;;;5.70;;
70800;SDS011;59616;52.170;5.386;2023-06-24T01:41:40;12.20;;;5.82;;
70800;SDS011;59616;52.170;5.386;2023-06-24T01:44:08;12.80;;;5.05;;
70800;SDS011;59616;52.170;5.386;2023-06-24T01:46:36;12.18;;;5.88;;
70800;SDS011;59616;52.170;5.386;2023-06-24T01:49:05;11.80;;;5.13;;
70800;SDS011;59616;52.170;5.386;2023-06-24T01:51:34;11.93;;;5.43;;
70800;SDS011;59616;52.170;5.386;2023-06-24T01:54:03;13.15;;;5.72;;
70800;SDS011;59616;52.170;5.386;2023-06-24T01:56:32;11.98;;;5.22;;
70800;SDS011;59616;52.170;5.386;2023-06-24T01:59:01;15.32;;;5.68;;
70800;SDS011;59616;52.170;5.386;2023-06-24T02:01:35;11.38;;;5.43;;
70800;SDS011;59616;52.170;5.386;2023-06-24T02:04:04;13.90;;;5.80;;
70800;SDS011;59616;52.170;5.386;2023-06-24T02:06:31;12.93;;;5.57;;
70800;SDS011;59616;52.170;5.386;2023-06-24T02:08:59;13.05;;;5.78;;
70800;SDS011;59616;52.170;5.386;2023-06-24T02:11:28;14.43;;;5.80;;
70800;SDS011;59616;52.170;5.386;2023-06-24T02:13:57;11.75;;;5.72;;
70800;SDS011;59616;52.170;5.386;2023-06-24T02:16:27;11.77;;;5.00;;
70800;SDS011;59616;52.170;5.386;2023-06-24T02:18:55;11.57;;;5.10;;
70800;SDS011;59616;52.170;5.386;2023-06-24T02:21:24;12.07;;;5.60;;
70800;SDS011;59616;52.170;5.386;2023-06-24T02:23:54;12.63;;;5.28;;
70800;SDS011;59616;52.170;5.386;2023-06-24T02:26:22;11.20;;;5.13;;
70800;SDS011;59616;52.170;5.386;2023-06-24T02:28:52;10.10;;;4.78;;
70800;SDS011;59616;52.170;5.386;2023-06-24T02:31:19;11.02;;;5.03;;
70800;SDS011;59616;52.170;5.386;2023-06-24T02:33:47;11.38;;;5.25;;
70800;SDS011;59616;52.170;5.386;2023-06-24T02:36:14;12.73;;;5.35;;
70800;SDS011;59616;52.170;5.386;2023-06-24T02:38:42;11.50;;;4.88;;
70800;SDS011;59616;52.170;5.386;2023-06-24T02:41:09;11.38;;;5.07;;
70800;SDS011;59616;52.170;5.386;2023-06-24T02:43:36;13.73;;;5.80;;
70800;SDS011;59616;52.170;5.386;2023-06-24T02:46:04;13.13;;;5.88;;
70800;SDS011;59616;52.170;5.386;2023-06-24T02:48:34;11.85;;;5.50;;
70800;SDS011;59616;52.170;5.386;2023-06-24T02:51:03;13.25;;;5.68;;
70800;SDS011;59616;52.170;5.386;2023-06-24T02:53:31;13.25;;;5.63;;
70800;SDS011;59616;52.170;5.386;2023-06-24T02:55:59;11.98;;;5.72;;
70800;SDS011;59616;52.170;5.386;2023-06-24T02:58:26;12.38;;;5.72;;
70800;SDS011;59616;52.170;5.386;2023-06-24T03:01:04;12.95;;;5.65;;
70800;SDS011;59616;52.170;5.386;2023-06-24T03:06:21;13.43;;;5.68;;
70800;SDS011;59616;52.170;5.386;2023-06-24T03:08:49;14.02;;;5.68;;
70800;SDS011;59616;52.170;5.386;2023-06-24T03:11:19;13.88;;;6.57;;
70800;SDS011;59616;52.170;5.386;2023-06-24T03:13:47;15.05;;;6.50;;
70800;SDS011;59616;52.170;5.386;2023-06-24T03:16:32;15.32;;;7.22;;
70800;SDS011;59616;52.170;5.386;2023-06-24T03:19:06;15.60;;;7.22;;
70800;SDS011;59616;52.170;5.386;2023-06-24T03:21:33;14.18;;;6.93;;
70800;SDS011;59616;52.170;5.386;2023-06-24T03:24:06;16.08;;;7.00;;
70800;SDS011;59616;52.170;5.386;2023-06-24T03:26:37;15.00;;;6.72;;
70800;SDS011;59616;52.170;5.386;2023-06-24T03:29:06;14.50;;;6.90;;
70800;SDS011;59616;52.170;5.386;2023-06-24T03:31:37;15.43;;;6.72;;
70800;SDS011;59616;52.170;5.386;2023-06-24T03:34:14;17.15;;;7.28;;
70800;SDS011;59616;52.170;5.386;2023-06-24T03:36:43;16.25;;;7.30;;
70800;SDS011;59616;52.170;5.386;2023-06-24T03:39:12;14.48;;;6.60;;
70800;SDS011;59616;52.170;5.386;2023-06-24T03:41:39;14.27;;;6.40;;
70800;SDS011;59616;52.170;5.386;2023-06-24T03:44:07;13.07;;;5.60;;
70800;SDS011;59616;52.170;5.386;2023-06-24T03:46:35;13.52;;;6.38;;
70800;SDS011;59616;52.170;5.386;2023-06-24T03:49:02;16.23;;;6.82;;
70800;SDS011;59616;52.170;5.386;2023-06-24T03:51:29;13.98;;;6.55;;
70800;SDS011;59616;52.170;5.386;2023-06-24T03:53:57;15.93;;;6.88;;
70800;SDS011;59616;52.170;5.386;2023-06-24T03:56:26;14.60;;;6.97;;
70800;SDS011;59616;52.170;5.386;2023-06-24T03:58:53;15.48;;;6.70;;
70800;SDS011;59616;52.170;5.386;2023-06-24T04:01:20;15.77;;;6.82;;
70800;SDS011;59616;52.170;5.386;2023-06-24T04:03:48;16.30;;;7.40;;
70800;SDS011;59616;52.170;5.386;2023-06-24T04:06:15;15.45;;;6.90;;
70800;SDS011;59616;52.170;5.386;2023-06-24T04:08:44;15.73;;;7.05;;
70800;SDS011;59616;52.170;5.386;2023-06-24T04:11:11;15.55;;;6.78;;
70800;SDS011;59616;52.170;5.386;2023-06-24T04:13:38;14.88;;;6.70;;
70800;SDS011;59616;52.170;5.386;2023-06-24T04:16:05;13.55;;;6.10;;
70800;SDS011;59616;52.170;5.386;2023-06-24T04:18:33;16.27;;;6.43;;
70800;SDS011;59616;52.170;5.386;2023-06-24T04:21:03;13.75;;;6.05;;
70800;SDS011;59616;52.170;5.386;2023-06-24T04:23:31;13.93;;;6.18;;
70800;SDS011;59616;52.170;5.386;2023-06-24T04:25:58;13.38;;;5.85;;
70800;SDS011;59616;52.170;5.386;2023-06-24T04:28:26;13.27;;;6.03;;
70800;SDS011;59616;52.170;5.386;2023-06-24T04:30:53;13.90;;;6.05;;
70800;SDS011;59616;52.170;5.386;2023-06-24T04:33:21;12.75;;;5.30;;
70800;SDS011;59616;52.170;5.386;2023-06-24T04:35:49;15.65;;;6.25;;
70800;SDS011;59616;52.170;5.386;2023-06-24T04:38:18;12.85;;;5.47;;
70800;SDS011;59616;52.170;5.386;2023-06-24T04:40:47;13.10;;;5.80;;
70800;SDS011;59616;52.170;5.386;2023-06-24T04:43:14;13.32;;;5.95;;
70800;SDS011;59616;52.170;5.386;2023-06-24T04:45:41;15.35;;;6.10;;
70800;SDS011;59616;52.170;5.386;2023-06-24T04:48:08;13.45;;;5.68;;
70800;SDS011;59616;52.170;5.386;2023-06-24T04:50:36;14.38;;;5.90;;
70800;SDS011;59616;52.170;5.386;2023-06-24T04:53:03;13.02;;;5.80;;
70800;SDS011;59616;52.170;5.386;2023-06-24T04:55:30;11.65;;;4.90;;
70800;SDS011;59616;52.170;5.386;2023-06-24T04:57:58;15.32;;;5.47;;
70800;SDS011;59616;52.170;5.386;2023-06-24T05:00:25;13.25;;;5.25;;
70800;SDS011;59616;52.170;5.386;2023-06-24T05:02:52;10.82;;;4.97;;
70800;SDS011;59616;52.170;5.386;2023-06-24T05:05:20;11.00;;;4.60;;
70800;SDS011;59616;52.170;5.386;2023-06-24T05:07:47;12.55;;;4.72;;
70800;SDS011;59616;52.170;5.386;2023-06-24T05:10:15;14.23;;;5.18;;
70800;SDS011;59616;52.170;5.386;2023-06-24T05:12:42;10.60;;;4.00;;
70800;SDS011;59616;52.170;5.386;2023-06-24T05:15:10;13.32;;;4.00;;
70800;SDS011;59616;52.170;5.386;2023-06-24T05:17:37;10.73;;;3.58;;
70800;SDS011;59616;52.170;5.386;2023-06-24T05:20:05;10.32;;;3.97;;
70800;SDS011;59616;52.170;5.386;2023-06-24T05:22:32;9.57;;;3.60;;
70800;SDS011;59616;52.170;5.386;2023-06-24T05:24:59;9.15;;;3.22;;
70800;SDS011;59616;52.170;5.386;2023-06-24T05:27:27;11.05;;;3.70;;
70800;SDS011;59616;52.170;5.386;2023-06-24T05:29:54;12.50;;;3.80;;
70800;SDS011;59616;52.170;5.386;2023-06-24T05:32:21;9.98;;;3.20;;
70800;SDS011;59616;52.170;5.386;2023-06-24T05:34:48;8.93;;;3.42;;
70800;SDS011;59616;52.170;5.386;2023-06-24T05:37:16;9.63;;;2.97;;
70800;SDS011;59616;52.170;5.386;2023-06-24T05:39:43;10.32;;;3.10;;
70800;SDS011;59616;52.170;5.386;2023-06-24T05:42:10;9.55;;;3.35;;
70800;SDS011;59616;52.170;5.386;2023-06-24T05:44:37;9.38;;;3.42;;
70800;SDS011;59616;52.170;5.386;2023-06-24T05:47:05;9.00;;;3.05;;
70800;SDS011;59616;52.170;5.386;2023-06-24T05:49:32;9.55;;;3.20;;
70800;SDS011;59616;52.170;5.386;2023-06-24T05:51:59;8.13;;;2.90;;
70800;SDS011;59616;52.170;5.386;2023-06-24T05:54:26;9.30;;;3.40;;
70800;SDS011;59616;52.170;5.386;2023-06-24T05:56:54;7.40;;;2.90;;
70800;SDS011;59616;52.170;5.386;2023-06-24T05:59:21;8.50;;;3.00;;
70800;SDS011;59616;52.170;5.386;2023-06-24T06:01:48;9.27;;;3.50;;
70800;SDS011;59616;52.170;5.386;2023-06-24T06:04:16;9.88;;;3.17;;
70800;SDS011;59616;52.170;5.386;2023-06-24T06:06:43;8.75;;;3.17;;
70800;SDS011;59616;52.170;5.386;2023-06-24T06:09:10;7.85;;;2.72;;
70800;SDS011;59616;52.170;5.386;2023-06-24T06:11:38;9.45;;;3.28;;
70800;SDS011;59616;52.170;5.386;2023-06-24T06:14:05;8.45;;;3.15;;
70800;SDS011;59616;52.170;5.386;2023-06-24T06:16:32;8.90;;;3.20;;
70800;SDS011;59616;52.170;5.386;2023-06-24T06:19:00;8.60;;;3.17;;
70800;SDS011;59616;52.170;5.386;2023-06-24T06:21:27;8.95;;;3.50;;
70800;SDS011;59616;52.170;5.386;2023-06-24T06:23:54;11.60;;;3.30;;
70800;SDS011;59616;52.170;5.386;2023-06-24T06:26:21;10.02;;;3.40;;
70800;SDS011;59616;52.170;5.386;2023-06-24T06:28:49;10.20;;;3.60;;
70800;SDS011;59616;52.170;5.386;2023-06-24T06:31:16;9.88;;;3.42;;
70800;SDS011;59616;52.170;5.386;2023-06-24T06:33:43;10.13;;;3.55;;
70800;SDS011;59616;52.170;5.386;2023-06-24T06:36:11;8.07;;;3.08;;
70800;SDS011;59616;52.170;5.386;2023-06-24T06:38:38;9.82;;;3.00;;
70800;SDS011;59616;52.170;5.386;2023-06-24T06:41:05;9.68;;;3.50;;
70800;SDS011;59616;52.170;5.386;2023-06-24T06:43:33;8.15;;;3.30;;
70800;SDS011;59616;52.170;5.386;2023-06-24T06:46:00;11.95;;;3.97;;
70800;SDS011;59616;52.170;5.386;2023-06-24T06:48:28;10.25;;;3.30;;
70800;SDS011;59616;52.170;5.386;2023-06-24T06:50:55;10.27;;;3.70;;
70800;SDS011;59616;52.170;5.386;2023-06-24T06:53:22;7.22;;;2.90;;
70800;SDS011;59616;52.170;5.386;2023-06-24T06:55:50;9.23;;;3.33;;
70800;SDS011;59616;52.170;5.386;2023-06-24T06:58:17;9.35;;;3.53;;
70800;SDS011;59616;52.170;5.386;2023-06-24T07:00:44;10.18;;;3.38;;
70800;SDS011;59616;52.170;5.386;2023-06-24T07:03:12;9.77;;;3.30;;
70800;SDS011;59616;52.170;5.386;2023-06-24T07:05:40;10.77;;;3.50;;
70800;SDS011;59616;52.170;5.386;2023-06-24T07:08:08;9.27;;;3.40;;
70800;SDS011;59616;52.170;5.386;2023-06-24T07:10:35;8.93;;;3.58;;
70800;SDS011;59616;52.170;5.386;2023-06-24T07:13:02;9.50;;;3.40;;
70800;SDS011;59616;52.170;5.386;2023-06-24T07:15:30;8.82;;;3.08;;
70800;SDS011;59616;52.170;5.386;2023-06-24T07:17:57;9.27;;;3.40;;
70800;SDS011;59616;52.170;5.386;2023-06-24T07:20:24;7.75;;;2.83;;
70800;SDS011;59616;52.170;5.386;2023-06-24T07:22:52;8.52;;;2.92;;
70800;SDS011;59616;52.170;5.386;2023-06-24T07:25:19;10.05;;;3.00;;
70800;SDS011;59616;52.170;5.386;2023-06-24T07:27:46;7.93;;;2.80;;
70800;SDS011;59616;52.170;5.386;2023-06-24T07:30:14;8.70;;;2.83;;
70800;SDS011;59616;52.170;5.386;2023-06-24T07:32:41;8.18;;;2.60;;
70800;SDS011;59616;52.170;5.386;2023-06-24T07:35:08;8.55;;;2.90;;
70800;SDS011;59616;52.170;5.386;2023-06-24T07:37:36;7.13;;;2.78;;
70800;SDS011;59616;52.170;5.386;2023-06-24T07:40:05;8.20;;;3.08;;
70800;SDS011;59616;52.170;5.386;2023-06-24T07:42:34;8.13;;;2.72;;
70800;SDS011;59616;52.170;5.386;2023-06-24T07:45:01;8.40;;;2.80;;
70800;SDS011;59616;52.170;5.386;2023-06-24T07:47:29;8.90;;;2.63;;
70800;SDS011;59616;52.170;5.386;2023-06-24T07:49:58;7.35;;;2.80;;
70800;SDS011;59616;52.170;5.386;2023-06-24T07:52:25;8.60;;;3.03;;
70800;SDS011;59616;52.170;5.386;2023-06-24T07:54:52;9.52;;;3.20;;
70800;SDS011;59616;52.170;5.386;2023-06-24T07:57:20;7.80;;;2.58;;
70800;SDS011;59616;52.170;5.386;2023-06-24T07:59:47;8.68;;;3.08;;
70800;SDS011;59616;52.170;5.386;2023-06-24T08:02:14;6.88;;;2.72;;
70800;SDS011;59616;52.170;5.386;2023-06-24T08:04:42;7.68;;;2.42;;
70800;SDS011;59616;52.170;5.386;2023-06-24T08:07:10;9.50;;;2.55;;
70800;SDS011;59616;52.170;5.386;2023-06-24T08:09:37;6.85;;;2.60;;
70800;SDS011;59616;52.170;5.386;2023-06-24T08:12:05;6.78;;;2.50;;
70800;SDS011;59616;52.170;5.386;2023-06-24T08:14:32;8.02;;;2.50;;
70800;SDS011;59616;52.170;5.386;2023-06-24T08:16:59;7.40;;;2.58;;
70800;SDS011;59616;52.170;5.386;2023-06-24T08:19:27;7.50;;;2.60;;
70800;SDS011;59616;52.170;5.386;2023-06-24T08:21:54;8.10;;;3.00;;
70800;SDS011;59616;52.170;5.386;2023-06-24T08:24:21;5.80;;;2.50;;
70800;SDS011;59616;52.170;5.386;2023-06-24T08:26:48;7.07;;;2.55;;
70800;SDS011;59616;52.170;5.386;2023-06-24T08:29:16;8.15;;;2.63;;
70800;SDS011;59616;52.170;5.386;2023-06-24T08:31:43;7.28;;;2.55;;
70800;SDS011;59616;52.170;5.386;2023-06-24T08:34:10;6.50;;;2.70;;
70800;SDS011;59616;52.170;5.386;2023-06-24T08:36:38;6.90;;;2.80;;
70800;SDS011;59616;52.170;5.386;2023-06-24T08:39:05;9.05;;;2.78;;
70800;SDS011;59616;52.170;5.386;2023-06-24T08:41:32;6.88;;;2.45;;
70800;SDS011;59616;52.170;5.386;2023-06-24T08:43:59;7.78;;;2.95;;
70800;SDS011;59616;52.170;5.386;2023-06-24T08:46:27;7.60;;;2.65;;
70800;SDS011;59616;52.170;5.386;2023-06-24T08:49:04;7.75;;;2.65;;
70800;SDS011;59616;52.170;5.386;2023-06-24T08:51:37;8.13;;;3.10;;
70800;SDS011;59616;52.170;5.386;2023-06-24T08:54:08;9.52;;;3.30;;
70800;SDS011;59616;52.170;5.386;2023-06-24T08:56:37;9.82;;;3.00;;
70800;SDS011;59616;52.170;5.386;2023-06-24T08:59:08;8.23;;;3.15;;
70800;SDS011;59616;52.170;5.386;2023-06-24T09:01:35;7.97;;;2.90;;
70800;SDS011;59616;52.170;5.386;2023-06-24T09:04:02;7.22;;;3.03;;
70800;SDS011;59616;52.170;5.386;2023-06-24T09:06:33;8.52;;;3.33;;
70800;SDS011;59616;52.170;5.386;2023-06-24T09:09:00;8.98;;;3.22;;
70800;SDS011;59616;52.170;5.386;2023-06-24T09:11:28;7.55;;;2.95;;
70800;SDS011;59616;52.170;5.386;2023-06-24T09:13:55;7.53;;;3.00;;
70800;SDS011;59616;52.170;5.386;2023-06-24T09:16:26;8.77;;;3.15;;
70800;SDS011;59616;52.170;5.386;2023-06-24T09:18:54;7.47;;;2.92;;
70800;SDS011;59616;52.170;5.386;2023-06-24T09:21:22;8.27;;;3.20;;
70800;SDS011;59616;52.170;5.386;2023-06-24T09:23:57;8.50;;;3.20;;
70800;SDS011;59616;52.170;5.386;2023-06-24T09:26:25;8.48;;;2.90;;
70800;SDS011;59616;52.170;5.386;2023-06-24T09:28:53;8.55;;;3.03;;
70800;SDS011;59616;52.170;5.386;2023-06-24T09:31:20;9.07;;;3.30;;
70800;SDS011;59616;52.170;5.386;2023-06-24T09:33:49;8.43;;;3.28;;
70800;SDS011;59616;52.170;5.386;2023-06-24T09:36:17;7.53;;;3.00;;
70800;SDS011;59616;52.170;5.386;2023-06-24T09:38:44;6.97;;;2.90;;
70800;SDS011;59616;52.170;5.386;2023-06-24T09:41:13;8.25;;;3.10;;
70800;SDS011;59616;52.170;5.386;2023-06-24T09:43:41;7.70;;;3.10;;
70800;SDS011;59616;52.170;5.386;2023-06-24T09:46:11;10.20;;;3.20;;
70800;SDS011;59616;52.170;5.386;2023-06-24T09:48:39;7.00;;;2.88;;
70800;SDS011;59616;52.170;5.386;2023-06-24T09:51:06;11.32;;;3.70;;
70800;SDS011;59616;52.170;5.386;2023-06-24T09:53:35;8.63;;;3.33;;
70800;SDS011;59616;52.170;5.386;2023-06-24T09:56:03;11.05;;;3.33;;
70800;SDS011;59616;52.170;5.386;2023-06-24T09:58:31;7.22;;;3.05;;
70800;SDS011;59616;52.170;5.386;2023-06-24T10:01:02;8.20;;;3.20;;
70800;SDS011;59616;52.170;5.386;2023-06-24T10:03:32;8.20;;;3.50;;
70800;SDS011;59616;52.170;5.386;2023-06-24T10:06:01;7.47;;;3.35;;
70800;SDS011;59616;52.170;5.386;2023-06-24T10:08:29;13.07;;;3.80;;
70800;SDS011;59616;52.170;5.386;2023-06-24T10:10:57;8.07;;;3.17;;
70800;SDS011;59616;52.170;5.386;2023-06-24T10:13:25;9.70;;;3.58;;
70800;SDS011;59616;52.170;5.386;2023-06-24T10:15:52;8.20;;;3.10;;
70800;SDS011;59616;52.170;5.386;2023-06-24T10:18:38;7.95;;;3.17;;
70800;SDS011;59616;52.170;5.386;2023-06-24T10:21:08;12.25;;;3.28;;
70800;SDS011;59616;52.170;5.386;2023-06-24T10:37:01;8.90;;;3.53;;
70800;SDS011;59616;52.170;5.386;2023-06-24T10:47:36;9.25;;;3.80;;
70800;SDS011;59616;52.170;5.386;2023-06-24T10:50:14;10.25;;;3.95;;
70800;SDS011;59616;52.170;5.386;2023-06-24T10:52:49;11.00;;;4.10;;
70800;SDS011;59616;52.170;5.386;2023-06-24T10:55:23;7.75;;;3.40;;
70800;SDS011;59616;52.170;5.386;2023-06-24T10:57:52;6.82;;;2.83;;
70800;SDS011;59616;52.170;5.386;2023-06-24T11:00:20;9.00;;;3.58;;
70800;SDS011;59616;52.170;5.386;2023-06-24T11:02:47;10.65;;;4.03;;
70800;SDS011;59616;52.170;5.386;2023-06-24T11:05:15;8.45;;;3.50;;
70800;SDS011;59616;52.170;5.386;2023-06-24T11:07:42;8.27;;;3.50;;
70800;SDS011;59616;52.170;5.386;2023-06-24T11:10:10;9.57;;;3.65;;
70800;SDS011;59616;52.170;5.386;2023-06-24T11:12:40;7.20;;;3.22;;
70800;SDS011;59616;52.170;5.386;2023-06-24T11:15:10;7.90;;;3.15;;
70800;SDS011;59616;52.170;5.386;2023-06-24T11:17:38;8.82;;;3.47;;
70800;SDS011;59616;52.170;5.386;2023-06-24T11:20:07;9.63;;;4.20;;
70800;SDS011;59616;52.170;5.386;2023-06-24T11:22:35;8.38;;;3.33;;
70800;SDS011;59616;52.170;5.386;2023-06-24T11:25:02;9.95;;;3.60;;
70800;SDS011;59616;52.170;5.386;2023-06-24T11:27:30;9.15;;;3.53;;
70800;SDS011;59616;52.170;5.386;2023-06-24T11:29:58;9.68;;;4.13;;
70800;SDS011;59616;52.170;5.386;2023-06-24T11:32:37;9.45;;;3.92;;
70800;SDS011;59616;52.170;5.386;2023-06-24T11:35:05;11.15;;;4.50;;
70800;SDS011;59616;52.170;5.386;2023-06-24T11:37:33;10.00;;;4.15;;
70800;SDS011;59616;52.170;5.386;2023-06-24T11:40:04;8.48;;;3.75;;
70800;SDS011;59616;52.170;5.386;2023-06-24T11:45:04;9.00;;;3.85;;
70800;SDS011;59616;52.170;5.386;2023-06-24T11:47:33;7.97;;;3.63;;
70800;SDS011;59616;52.170;5.386;2023-06-24T11:50:02;11.25;;;4.20;;
70800;SDS011;59616;52.170;5.386;2023-06-24T11:55:20;11.00;;;3.90;;
70800;SDS011;59616;52.170;5.386;2023-06-24T11:57:55;9.55;;;4.00;;
70800;SDS011;59616;52.170;5.386;2023-06-24T12:00:24;8.10;;;3.63;;
70800;SDS011;59616;52.170;5.386;2023-06-24T12:03:01;8.20;;;3.47;;
70800;SDS011;59616;52.170;5.386;2023-06-24T12:05:35;9.32;;;3.72;;
70800;SDS011;59616;52.170;5.386;2023-06-24T12:08:06;10.85;;;4.40;;
70800;SDS011;59616;52.170;5.386;2023-06-24T12:10:35;10.55;;;4.00;;
70800;SDS011;59616;52.170;5.386;2023-06-24T12:13:03;9.00;;;3.83;;
70800;SDS011;59616;52.170;5.386;2023-06-24T12:18:02;9.95;;;3.90;;
70800;SDS011;59616;52.170;5.386;2023-06-24T12:20:29;9.45;;;3.78;;
70800;SDS011;59616;52.170;5.386;2023-06-24T12:23:00;8.20;;;3.50;;
70800;SDS011;59616;52.170;5.386;2023-06-24T12:25:27;10.80;;;4.72;;
70800;SDS011;59616;52.170;5.386;2023-06-24T12:27:55;10.65;;;4.32;;
70800;SDS011;59616;52.170;5.386;2023-06-24T12:30:22;7.38;;;3.33;;
70800;SDS011;59616;52.170;5.386;2023-06-24T12:32:52;9.57;;;3.92;;
70800;SDS011;59616;52.170;5.386;2023-06-24T12:35:19;9.85;;;4.20;;
70800;SDS011;59616;52.170;5.386;2023-06-24T12:37:46;11.02;;;4.28;;
70800;SDS011;59616;52.170;5.386;2023-06-24T12:40:15;9.60;;;4.00;;
70800;SDS011;59616;52.170;5.386;2023-06-24T12:42:42;8.75;;;3.78;;
70800;SDS011;59616;52.170;5.386;2023-06-24T12:45:09;8.45;;;3.58;;
70800;SDS011;59616;52.170;5.386;2023-06-24T12:47:36;9.23;;;3.80;;
70800;SDS011;59616;52.170;5.386;2023-06-24T12:50:04;10.07;;;3.75;;
70800;SDS011;59616;52.170;5.386;2023-06-24T12:52:35;9.90;;;3.83;;
70800;SDS011;59616;52.170;5.386;2023-06-24T12:55:03;11.07;;;4.10;;
70800;SDS011;59616;52.170;5.386;2023-06-24T12:57:31;9.25;;;4.03;;
70800;SDS011;59616;52.170;5.386;2023-06-24T12:59:58;9.68;;;3.80;;
70800;SDS011;59616;52.170;5.386;2023-06-24T13:02:26;8.50;;;3.25;;
70800;SDS011;59616;52.170;5.386;2023-06-24T13:04:53;7.80;;;3.30;;
70800;SDS011;59616;52.170;5.386;2023-06-24T13:07:20;9.43;;;3.72;;
70800;SDS011;59616;52.170;5.386;2023-06-24T13:09:48;7.88;;;3.30;;
70800;SDS011;59616;52.170;5.386;2023-06-24T13:12:15;8.23;;;3.50;;
70800;SDS011;59616;52.170;5.386;2023-06-24T13:14:42;8.27;;;3.60;;
70800;SDS011;59616;52.170;5.386;2023-06-24T13:17:09;9.55;;;3.60;;
70800;SDS011;59616;52.170;5.386;2023-06-24T13:19:37;8.27;;;3.50;;
70800;SDS011;59616;52.170;5.386;2023-06-24T13:22:04;8.07;;;3.70;;
70800;SDS011;59616;52.170;5.386;2023-06-24T13:24:31;10.30;;;3.72;;
70800;SDS011;59616;52.170;5.386;2023-06-24T13:26:59;10.00;;;3.60;;
70800;SDS011;59616;52.170;5.386;2023-06-24T13:29:26;7.88;;;3.33;;
70800;SDS011;59616;52.170;5.386;2023-06-24T13:31:53;8.63;;;4.05;;
70800;SDS011;59616;52.170;5.386;2023-06-24T13:34:21;7.80;;;3.03;;
70800;SDS011;59616;52.170;5.386;2023-06-24T13:36:48;7.07;;;3.00;;
70800;SDS011;59616;52.170;5.386;2023-06-24T13:39:15;8.43;;;3.40;;
70800;SDS011;59616;52.170;5.386;2023-06-24T13:41:46;8.32;;;3.58;;
70800;SDS011;59616;52.170;5.386;2023-06-24T13:44:13;11.02;;;4.07;;
70800;SDS011;59616;52.170;5.386;2023-06-24T13:46:41;7.93;;;3.33;;
70800;SDS011;59616;52.170;5.386;2023-06-24T13:49:09;8.98;;;3.40;;
70800;SDS011;59616;52.170;5.386;2023-06-24T13:51:37;9.35;;;3.67;;
70800;SDS011;59616;52.170;5.386;2023-06-24T13:54:04;7.95;;;3.55;;
70800;SDS011;59616;52.170;5.386;2023-06-24T13:56:31;9.30;;;3.38;;
70800;SDS011;59616;52.170;5.386;2023-06-24T13:58:58;8.55;;;3.60;;
70800;SDS011;59616;52.170;5.386;2023-06-24T14:01:26;6.88;;;3.20;;
70800;SDS011;59616;52.170;5.386;2023-06-24T14:03:58;7.25;;;3.05;;
70800;SDS011;59616;52.170;5.386;2023-06-24T14:06:25;8.38;;;3.47;;
70800;SDS011;59616;52.170;5.386;2023-06-24T14:08:52;7.93;;;3.53;;
70800;SDS011;59616;52.170;5.386;2023-06-24T14:11:20;8.35;;;3.30;;
70800;SDS011;59616;52.170;5.386;2023-06-24T14:13:48;8.88;;;3.50;;
70800;SDS011;59616;52.170;5.386;2023-06-24T14:16:15;8.32;;;3.35;;
70800;SDS011;59616;52.170;5.386;2023-06-24T14:18:43;9.93;;;3.88;;
70800;SDS011;59616;52.170;5.386;2023-06-24T14:21:10;8.82;;;3.50;;
70800;SDS011;59616;52.170;5.386;2023-06-24T14:23:37;8.98;;;3.28;;
70800;SDS011;59616;52.170;5.386;2023-06-24T14:26:06;9.25;;;3.50;;
70800;SDS011;59616;52.170;5.386;2023-06-24T14:28:33;9.68;;;3.55;;
70800;SDS011;59616;52.170;5.386;2023-06-24T14:31:01;8.13;;;3.25;;
70800;SDS011;59616;52.170;5.386;2023-06-24T14:33:28;8.60;;;3.33;;
70800;SDS011;59616;52.170;5.386;2023-06-24T14:35:55;7.88;;;3.45;;
70800;SDS011;59616;52.170;5.386;2023-06-24T14:38:22;8.48;;;3.88;;
70800;SDS011;59616;52.170;5.386;2023-06-24T14:40:51;9.65;;;4.15;;
70800;SDS011;59616;52.170;5.386;2023-06-24T14:43:19;8.48;;;3.10;;
70800;SDS011;59616;52.170;5.386;2023-06-24T14:45:46;8.68;;;3.60;;
70800;SDS011;59616;52.170;5.386;2023-06-24T14:48:13;8.82;;;3.42;;
70800;SDS011;59616;52.170;5.386;2023-06-24T14:50:41;9.02;;;3.17;;
70800;SDS011;59616;52.170;5.386;2023-06-24T14:53:08;8.70;;;3.55;;
70800;SDS011;59616;52.170;5.386;2023-06-24T14:55:35;9.98;;;3.72;;
70800;SDS011;59616;52.170;5.386;2023-06-24T14:58:02;8.13;;;3.63;;
70800;SDS011;59616;52.170;5.386;2023-06-24T15:00:30;8.93;;;3.42;;
70800;SDS011;59616;52.170;5.386;2023-06-24T15:02:57;7.53;;;3.40;;
70800;SDS011;59616;52.170;5.386;2023-06-24T15:05:24;7.60;;;3.45;;
70800;SDS011;59616;52.170;5.386;2023-06-24T15:07:51;8.68;;;3.83;;
70800;SDS011;59616;52.170;5.386;2023-06-24T15:10:19;11.30;;;5.10;;
70800;SDS011;59616;52.170;5.386;2023-06-24T15:12:46;8.15;;;3.50;;
70800;SDS011;59616;52.170;5.386;2023-06-24T15:15:14;9.10;;;3.40;;
70800;SDS011;59616;52.170;5.386;2023-06-24T15:17:41;10.68;;;3.60;;
70800;SDS011;59616;52.170;5.386;2023-06-24T15:20:11;10.25;;;4.30;;
70800;SDS011;59616;52.170;5.386;2023-06-24T15:22:38;9.27;;;3.88;;
70800;SDS011;59616;52.170;5.386;2023-06-24T15:25:06;9.10;;;4.00;;
70800;SDS011;59616;52.170;5.386;2023-06-24T15:27:33;10.50;;;3.90;;
70800;SDS011;59616;52.170;5.386;2023-06-24T15:30:00;8.27;;;3.55;;
70800;SDS011;59616;52.170;5.386;2023-06-24T15:32:28;11.07;;;4.28;;